sensor_id;sensor_type;location;lat;lon;timestamp;pressure;altitude;pressure_sealevel;temperature;humidity
31771;BME280;18343;50.152;8.182;2022-09-09T16:19:58;97021.41;;;18.05;100.00
31771;BME280;18343;50.152;8.182;2022-09-09T16:22:24;97027.72;;;18.27;100.00
31771;BME280;18343;50.152;8.182;2022-09-09T16:24:51;97028.22;;;18.46;100.00
31771;BME280;18343;50.152;8.182;2022-09-09T16:27:18;97018.34;;;18.62;100.00
31771;BME280;18343;50.152;8.182;2022-09-09T16:29:44;97019.63;;;18.76;100.00
31771;BME280;18343;50.152;8.182;2022-09-09T16:32:11;97017.28;;;18.84;100.00
31771;BME280;18343;50.152;8.182;2022-09-09T16:34:37;97021.19;;;18.93;100.00
31771;BME280;18343;50.152;8.182;2022-09-09T16:37:05;97028.34;;;19.00;100.00
31771;BME280;18343;50.152;8.182;2022-09-09T16:39:31;97028.41;;;19.05;99.90
31771;BME280;18343;50.152;8.182;2022-09-09T16:42:03;97033.09;;;19.09;99.88
31771;BME280;18343;50.152;8.182;2022-09-09T16:44:30;97036.94;;;19.13;99.44
31771;BME280;18343;50.152;8.182;2022-09-09T16:46:57;97039.97;;;19.17;99.06
31771;BME280;18343;50.152;8.182;2022-09-09T16:49:24;97032.34;;;19.19;98.94
31771;BME280;18343;50.152;8.182;2022-09-09T16:51:50;97037.28;;;19.22;98.91
31771;BME280;18343;50.152;8.182;2022-09-09T16:54:20;97029.69;;;19.24;98.82
31771;BME280;18343;50.152;8.182;2022-09-09T16:56:48;97037.34;;;19.27;98.50
31771;BME280;18343;50.152;8.182;2022-09-09T16:59:17;97035.19;;;19.29;98.22
31771;BME280;18343;50.152;8.182;2022-09-09T17:01:48;97034.94;;;19.31;98.09
31771;BME280;18343;50.152;8.182;2022-09-09T17:04:17;97040.13;;;19.32;97.73
31771;BME280;18343;50.152;8.182;2022-09-09T17:06:47;97031.69;;;19.34;97.55
31771;BME280;18343;50.152;8.182;2022-09-09T17:09:16;97028.13;;;19.33;97.46
31771;BME280;18343;50.152;8.182;2022-09-09T17:11:43;97032.50;;;19.34;97.33
31771;BME280;18343;50.152;8.182;2022-09-09T17:14:14;97022.44;;;19.35;97.48
31771;BME280;18343;50.152;8.182;2022-09-09T17:16:43;97026.81;;;19.36;96.80
31771;BME280;18343;50.152;8.182;2022-09-09T17:19:11;97033.91;;;19.37;96.38
31771;BME280;18343;50.152;8.182;2022-09-09T17:21:38;97028.44;;;19.37;96.54
31771;BME280;18343;50.152;8.182;2022-09-09T17:24:05;97027.63;;;19.36;96.30
31771;BME280;18343;50.152;8.182;2022-09-09T17:26:33;97028.19;;;19.38;96.27
31771;BME280;18343;50.152;8.182;2022-09-09T17:29:02;97032.00;;;19.37;96.20
31771;BME280;18343;50.152;8.182;2022-09-09T17:31:30;97034.72;;;19.37;95.47
31771;BME280;18343;50.152;8.182;2022-09-09T17:33:57;97036.63;;;19.37;95.63
31771;BME280;18343;50.152;8.182;2022-09-09T17:36:27;97037.72;;;19.36;95.20
31771;BME280;18343;50.152;8.182;2022-09-09T17:38:54;97033.91;;;19.37;95.28
31771;BME280;18343;50.152;8.182;2022-09-09T17:41:23;97034.97;;;19.36;95.13
31771;BME280;18343;50.152;8.182;2022-09-09T17:43:51;97031.19;;;19.37;95.20
31771;BME280;18343;50.152;8.182;2022-09-09T17:46:22;97026.81;;;19.36;94.90
31771;BME280;18343;50.152;8.182;2022-09-09T17:48:52;97033.91;;;19.37;94.78
31771;BME280;18343;50.152;8.182;2022-09-09T17:51:21;97036.88;;;19.35;94.48
31771;BME280;18343;50.152;8.182;2022-09-09T17:53:52;97046.97;;;19.35;94.83
31771;BME280;18343;50.152;8.182;2022-09-09T17:56:22;97040.69;;;19.34;94.63
31771;BME280;18343;50.152;8.182;2022-09-09T17:58:51;97042.59;;;19.34;94.30
31771;BME280;18343;50.152;8.182;2022-09-09T18:01:22;97044.50;;;19.33;93.97
31771;BME280;18343;50.152;8.182;2022-09-09T18:03:50;97031.94;;;19.32;94.17
31771;BME280;18343;50.152;8.182;2022-09-09T18:06:19;97048.31;;;19.32;93.80
31771;BME280;18343;50.152;8.182;2022-09-09T18:08:48;97052.13;;;19.31;93.72
31771;BME280;18343;50.152;8.182;2022-09-09T18:11:16;97057.56;;;19.31;93.47
31771;BME280;18343;50.152;8.182;2022-09-09T18:13:47;97052.38;;;19.30;93.56
31771;BME280;18343;50.152;8.182;2022-09-09T18:16:14;97063.28;;;19.30;93.31
31771;BME280;18343;50.152;8.182;2022-09-09T18:18:41;97070.63;;;19.29;93.39
31771;BME280;18343;50.152;8.182;2022-09-09T18:21:09;97076.34;;;19.27;93.21
31771;BME280;18343;50.152;8.182;2022-09-09T18:23:37;97089.72;;;19.29;93.09
31771;BME280;18343;50.152;8.182;2022-09-09T18:26:07;97090.22;;;19.26;92.96
31771;BME280;18343;50.152;8.182;2022-09-09T18:28:36;97082.28;;;19.24;92.83
31771;BME280;18343;50.152;8.182;2022-09-09T18:31:06;97088.81;;;19.23;92.64
31771;BME280;18343;50.152;8.182;2022-09-09T18:33:35;97095.34;;;19.22;92.81
31771;BME280;18343;50.152;8.182;2022-09-09T18:36:06;97090.41;;;19.19;92.68
31771;BME280;18343;50.152;8.182;2022-09-09T18:38:33;97085.78;;;19.20;92.45
31771;BME280;18343;50.152;8.182;2022-09-09T18:41:01;97084.13;;;19.19;92.41
31771;BME280;18343;50.152;8.182;2022-09-09T18:43:37;97082.50;;;19.18;92.45
31771;BME280;18343;50.152;8.182;2022-09-09T18:46:04;97086.03;;;19.18;92.26
31771;BME280;18343;50.152;8.182;2022-09-09T18:48:31;97084.41;;;19.17;92.07
31771;BME280;18343;50.152;8.182;2022-09-09T18:51:02;97087.38;;;19.16;92.35
31771;BME280;18343;50.152;8.182;2022-09-09T18:53:30;97091.19;;;19.15;91.97
31771;BME280;18343;50.152;8.182;2022-09-09T18:56:00;97100.19;;;19.15;92.00
31771;BME280;18343;50.152;8.182;2022-09-09T18:58:27;97099.66;;;19.13;92.02
31771;BME280;18343;50.152;8.182;2022-09-09T19:00:54;97096.91;;;19.13;91.91
31771;BME280;18343;50.152;8.182;2022-09-09T19:03:21;97100.47;;;19.14;91.96
31771;BME280;18343;50.152;8.182;2022-09-09T19:05:48;97103.44;;;19.12;91.92
31771;BME280;18343;50.152;8.182;2022-09-09T19:08:16;97107.25;;;19.11;91.96
31771;BME280;18343;50.152;8.182;2022-09-09T19:10:43;97104.53;;;19.11;91.78
31771;BME280;18343;50.152;8.182;2022-09-09T19:13:11;97101.22;;;19.09;91.63
31771;BME280;18343;50.152;8.182;2022-09-09T19:15:39;97111.06;;;19.10;91.77
31771;BME280;18343;50.152;8.182;2022-09-09T19:18:07;97107.75;;;19.08;91.70
31771;BME280;18343;50.152;8.182;2022-09-09T19:20:33;97107.75;;;19.08;91.79
31771;BME280;18343;50.152;8.182;2022-09-09T19:23:00;97112.38;;;19.08;91.65
31771;BME280;18343;50.152;8.182;2022-09-09T19:25:27;97107.19;;;19.06;91.67
31771;BME280;18343;50.152;8.182;2022-09-09T19:27:54;97109.09;;;19.06;91.58
31771;BME280;18343;50.152;8.182;2022-09-09T19:30:21;97109.34;;;19.04;91.47
31771;BME280;18343;50.152;8.182;2022-09-09T19:32:47;97113.13;;;19.03;91.58
31771;BME280;18343;50.152;8.182;2022-09-09T19:35:14;97107.94;;;19.02;91.26
31771;BME280;18343;50.152;8.182;2022-09-09T19:37:41;97119.66;;;19.02;91.52
31771;BME280;18343;50.152;8.182;2022-09-09T19:40:08;97110.09;;;19.00;91.36
31771;BME280;18343;50.152;8.182;2022-09-09T19:42:36;97107.63;;;18.98;91.14
31771;BME280;18343;50.152;8.182;2022-09-09T19:45:04;97107.88;;;18.97;91.10
31771;BME280;18343;50.152;8.182;2022-09-09T19:47:31;97107.31;;;18.94;91.02
31771;BME280;18343;50.152;8.182;2022-09-09T19:49:58;97094.50;;;18.95;91.12
31771;BME280;18343;50.152;8.182;2022-09-09T19:52:25;97101.03;;;18.94;90.91
31771;BME280;18343;50.152;8.182;2022-09-09T19:54:51;97103.19;;;18.92;91.11
31771;BME280;18343;50.152;8.182;2022-09-09T19:57:18;97102.34;;;18.91;90.91
31771;BME280;18343;50.152;8.182;2022-09-09T19:59:45;97105.09;;;18.91;90.62
31771;BME280;18343;50.152;8.182;2022-09-09T20:02:13;97099.88;;;18.90;90.92
31771;BME280;18343;50.152;8.182;2022-09-09T20:04:40;97112.69;;;18.89;90.92
31771;BME280;18343;50.152;8.182;2022-09-09T20:07:08;97102.84;;;18.88;90.88
31771;BME280;18343;50.152;8.182;2022-09-09T20:09:34;97101.22;;;18.87;90.47
31771;BME280;18343;50.152;8.182;2022-09-09T20:12:01;97103.41;;;18.85;90.65
31771;BME280;18343;50.152;8.182;2022-09-09T20:14:28;97102.81;;;18.83;90.75
31771;BME280;18343;50.152;8.182;2022-09-09T20:16:54;97104.72;;;18.83;90.71
31771;BME280;18343;50.152;8.182;2022-09-09T20:19:22;97103.91;;;18.82;90.73
31771;BME280;18343;50.152;8.182;2022-09-09T20:21:48;97108.53;;;18.82;90.59
31771;BME280;18343;50.152;8.182;2022-09-09T20:24:19;97110.41;;;18.81;90.74
31771;BME280;18343;50.152;8.182;2022-09-09T20:26:48;97113.16;;;18.81;90.46
31771;BME280;18343;50.152;8.182;2022-09-09T20:29:18;97105.22;;;18.80;90.46
31771;BME280;18343;50.152;8.182;2022-09-09T20:31:46;97109.03;;;18.79;90.66
31771;BME280;18343;50.152;8.182;2022-09-09T20:34:15;97112.81;;;18.78;90.36
31771;BME280;18343;50.152;8.182;2022-09-09T20:36:44;97107.38;;;18.78;90.30
31771;BME280;18343;50.152;8.182;2022-09-09T20:39:13;97103.00;;;18.77;90.36
31771;BME280;18343;50.152;8.182;2022-09-09T20:41:41;97106.81;;;18.76;90.30
31771;BME280;18343;50.152;8.182;2022-09-09T20:44:11;97118.78;;;18.75;90.46
31771;BME280;18343;50.152;8.182;2022-09-09T20:46:42;97110.03;;;18.73;90.16
31771;BME280;18343;50.152;8.182;2022-09-09T20:49:11;97112.75;;;18.73;90.12
31771;BME280;18343;50.152;8.182;2022-09-09T20:51:38;97107.56;;;18.71;90.17
31771;BME280;18343;50.152;8.182;2022-09-09T20:54:08;97107.81;;;18.70;90.07
31771;BME280;18343;50.152;8.182;2022-09-09T20:56:37;97115.16;;;18.69;90.04
31771;BME280;18343;50.152;8.182;2022-09-09T20:59:05;97108.88;;;18.69;90.40
31771;BME280;18343;50.152;8.182;2022-09-09T21:01:32;97114.56;;;18.67;90.16
31771;BME280;18343;50.152;8.182;2022-09-09T21:03:59;97117.31;;;18.67;90.04
31771;BME280;18343;50.152;8.182;2022-09-09T21:06:25;97103.94;;;18.66;90.21
31771;BME280;18343;50.152;8.182;2022-09-09T21:08:52;97118.63;;;18.65;90.00
31771;BME280;18343;50.152;8.182;2022-09-09T21:11:19;97123.25;;;18.64;89.88
31771;BME280;18343;50.152;8.182;2022-09-09T21:13:46;97125.16;;;18.64;90.11
31771;BME280;18343;50.152;8.182;2022-09-09T21:16:15;97119.94;;;18.62;90.13
31771;BME280;18343;50.152;8.182;2022-09-09T21:18:44;97120.19;;;18.60;89.94
31771;BME280;18343;50.152;8.182;2022-09-09T21:21:11;97112.28;;;18.59;90.10
31771;BME280;18343;50.152;8.182;2022-09-09T21:23:38;97121.31;;;18.59;89.93
31771;BME280;18343;50.152;8.182;2022-09-09T21:26:05;97114.44;;;18.57;90.00
31771;BME280;18343;50.152;8.182;2022-09-09T21:28:33;97116.31;;;18.56;89.84
31771;BME280;18343;50.152;8.182;2022-09-09T21:31:01;97110.31;;;18.54;89.81
31771;BME280;18343;50.152;8.182;2022-09-09T21:33:28;97110.31;;;18.54;89.85
31771;BME280;18343;50.152;8.182;2022-09-09T21:36:01;97109.72;;;18.52;89.75
31771;BME280;18343;50.152;8.182;2022-09-09T21:38:28;97112.47;;;18.52;89.90
31771;BME280;18343;50.152;8.182;2022-09-09T21:40:57;97120.03;;;18.50;89.77
31771;BME280;18343;50.152;8.182;2022-09-09T21:43:27;97114.03;;;18.48;89.86
31771;BME280;18343;50.152;8.182;2022-09-09T21:45:54;97118.41;;;18.49;89.74
31771;BME280;18343;50.152;8.182;2022-09-09T21:48:21;97121.38;;;18.48;89.84
31771;BME280;18343;50.152;8.182;2022-09-09T21:50:48;97122.44;;;18.47;89.92
31771;BME280;18343;50.152;8.182;2022-09-09T21:53:16;97131.44;;;18.47;89.81
31771;BME280;18343;50.152;8.182;2022-09-09T21:55:47;97129.22;;;18.44;89.96
31771;BME280;18343;50.152;8.182;2022-09-09T21:58:14;97126.50;;;18.44;89.90
31771;BME280;18343;50.152;8.182;2022-09-09T22:00:42;97129.22;;;18.44;89.86
31771;BME280;18343;50.152;8.182;2022-09-09T22:03:12;97131.09;;;18.44;89.57
31771;BME280;18343;50.152;8.182;2022-09-09T22:05:41;97126.16;;;18.41;89.92
31771;BME280;18343;50.152;8.182;2022-09-09T22:08:09;97128.06;;;18.40;89.99
31771;BME280;18343;50.152;8.182;2022-09-09T22:10:37;97136.22;;;18.40;89.75
31771;BME280;18343;50.152;8.182;2022-09-09T22:13:04;97128.31;;;18.39;89.91
31771;BME280;18343;50.152;8.182;2022-09-09T22:15:32;97132.94;;;18.38;89.78
31771;BME280;18343;50.152;8.182;2022-09-09T22:17:59;97129.38;;;18.38;89.95
31771;BME280;18343;50.152;8.182;2022-09-09T22:20:29;97121.47;;;18.36;89.84
31771;BME280;18343;50.152;8.182;2022-09-09T22:22:59;97129.63;;;18.36;89.90
31771;BME280;18343;50.152;8.182;2022-09-09T22:25:25;97121.47;;;18.36;89.79
31771;BME280;18343;50.152;8.182;2022-09-09T22:27:52;97130.69;;;18.35;89.87
31771;BME280;18343;50.152;8.182;2022-09-09T22:30:19;97127.97;;;18.35;90.09
31771;BME280;18343;50.152;8.182;2022-09-09T22:32:46;97126.31;;;18.34;89.96
31771;BME280;18343;50.152;8.182;2022-09-09T22:35:13;97126.31;;;18.34;90.12
31771;BME280;18343;50.152;8.182;2022-09-09T22:37:40;97132.84;;;18.33;90.39
31771;BME280;18343;50.152;8.182;2022-09-09T22:40:07;97130.13;;;18.33;90.05
31771;BME280;18343;50.152;8.182;2022-09-09T22:42:35;97137.47;;;18.33;90.21
31771;BME280;18343;50.152;8.182;2022-09-09T22:45:01;97134.19;;;18.31;90.12
31771;BME280;18343;50.152;8.182;2022-09-09T22:47:28;97130.41;;;18.32;89.95
31771;BME280;18343;50.152;8.182;2022-09-09T22:49:54;97135.25;;;18.30;90.06
31771;BME280;18343;50.152;8.182;2022-09-09T22:52:22;97130.06;;;18.28;90.03
31771;BME280;18343;50.152;8.182;2022-09-09T22:54:50;97131.72;;;18.29;90.25
31771;BME280;18343;50.152;8.182;2022-09-09T22:57:16;97137.41;;;18.27;90.22
31771;BME280;18343;50.152;8.182;2022-09-09T22:59:48;97143.09;;;18.26;90.02
31771;BME280;18343;50.152;8.182;2022-09-09T23:02:15;97140.38;;;18.26;90.04
31771;BME280;18343;50.152;8.182;2022-09-09T23:04:41;97142.53;;;18.24;90.33
31771;BME280;18343;50.152;8.182;2022-09-09T23:07:10;97147.16;;;18.23;90.53
31771;BME280;18343;50.152;8.182;2022-09-09T23:09:37;97138.97;;;18.23;90.11
31771;BME280;18343;50.152;8.182;2022-09-09T23:12:05;97141.94;;;18.22;90.58
31771;BME280;18343;50.152;8.182;2022-09-09T23:14:33;97146.56;;;18.21;90.47
31771;BME280;18343;50.152;8.182;2022-09-09T23:16:59;97142.19;;;18.20;90.62
31771;BME280;18343;50.152;8.182;2022-09-09T23:19:27;97144.09;;;18.20;90.62
31771;BME280;18343;50.152;8.182;2022-09-09T23:21:54;97152.25;;;18.20;90.37
31771;BME280;18343;50.152;8.182;2022-09-09T23:24:20;97145.16;;;18.19;90.41
31771;BME280;18343;50.152;8.182;2022-09-09T23:26:47;97151.44;;;18.19;90.53
31771;BME280;18343;50.152;8.182;2022-09-09T23:29:14;97144.34;;;18.18;90.74
31771;BME280;18343;50.152;8.182;2022-09-09T23:31:43;97143.50;;;18.18;90.50
31771;BME280;18343;50.152;8.182;2022-09-09T23:34:10;97141.88;;;18.17;90.65
31771;BME280;18343;50.152;8.182;2022-09-09T23:36:38;97139.13;;;18.17;90.90
31771;BME280;18343;50.152;8.182;2022-09-09T23:39:06;97137.50;;;18.16;90.91
31771;BME280;18343;50.152;8.182;2022-09-09T23:41:35;97126.84;;;18.14;90.61
31771;BME280;18343;50.152;8.182;2022-09-09T23:44:03;97132.03;;;18.16;90.86
31771;BME280;18343;50.152;8.182;2022-09-09T23:46:32;97128.75;;;18.14;90.60
31771;BME280;18343;50.152;8.182;2022-09-09T23:48:59;97134.44;;;18.12;90.95
31771;BME280;18343;50.152;8.182;2022-09-09T23:51:29;97130.88;;;18.12;90.79
31771;BME280;18343;50.152;8.182;2022-09-09T23:53:58;97126.53;;;18.11;90.83
31771;BME280;18343;50.152;8.182;2022-09-09T23:56:28;97124.63;;;18.11;90.82
31771;BME280;18343;50.152;8.182;2022-09-09T23:58:56;97122.97;;;18.10;90.84
